Costa Fascinosa — ICPO — position and weather

sailwx.info

Track history (hours):
 
Tides and Currents Weather Stations Pressure Air Temp Water Temp Dewpoint Dewpoint Depression Visibility Wind Speed Wind Dir Waves Ship Positions

Costa Fascinosa

Last reported at 2018-Nov-11 02:32 UTC. Time now 2018-Nov-18 16:09 UTC.
Position N 43°35' E 007°44'.

Length 291 m; draft 8.3 m.

Type: Passenger vessel. MMSI: 247313500.

Date/timePositionNaut miles runAvg speedWind from/ knotsBaromVisibWave heightAir tempDewpointWater temp
2018-Nov-11 02:32N 43°35' E 007°44'917.0
2018-Nov-11 02:02N 43°29' E 007°35'816.8
2018-Nov-11 01:32N 43°24' E 007°26'816.9
2018-Nov-11 01:02N 43°19' E 007°17'816.6
2018-Nov-11 00:32N 43°14' E 007°07'816.7
2018-Nov-11 00:02N 43°10' E 006°57'917.0
2018-Nov-10 23:32N 43°05' E 006°48'1116.5
2018-Nov-10 22:53N 42°59' E 006°36'6111.9
2018-Nov-10 17:44N 43°08' E 005°13'311.4
2018-Nov-10 17:31N 43°09' E 005°10'511.0
2018-Nov-10 17:02N 43°15' E 005°10'611.5
2018-Nov-10 16:32N 43°19' E 005°15'4 0.4
2018-Nov-10 07:16N 43°21' E 005°20'0 1.2
2018-Nov-10 07:02N 43°21' E 005°19'4 7.6
2018-Nov-10 06:30N 43°19' E 005°15'613.0
2018-Nov-10 06:02N 43°14' E 005°10'1216.7
2018-Nov-10 05:20N 43°04' E 005°01'14314.0
2018-Nov-09 19:03N 41°26' E 002°39'112.2
2018-Nov-09 19:00N 41°26' E 002°38'612.2
2018-Nov-09 18:32N 41°23' E 002°32'611.9
2018-Nov-09 18:02N 41°20' E 002°25'611.7
2018-Nov-09 17:32N 41°16' E 002°19'510.3
2018-Nov-09 17:02N 41°14' E 002°13'611.8
2018-Nov-09 16:32N 41°20' E 002°10'1 2.8
2018-Nov-09 16:02N 41°21' E 002°10'0 0.0
2018-Nov-09 15:32N 41°21' E 002°10'0 0.0
2018-Nov-09 14:49N 41°21' E 002°10'0 0.0
2018-Nov-09 14:29N 41°21' E 002°10'0 0.0
2018-Nov-09 13:46N 41°21' E 002°10'0 0.0
2018-Nov-09 13:31N 41°21' E 002°10'0 0.0
2018-Nov-09 13:00N 41°21' E 002°10'0 0.0
2018-Nov-09 12:30N 41°21' E 002°10'0 0.0
2018-Nov-09 12:02N 41°21' E 002°10'0 0.0
2018-Nov-09 11:31N 41°21' E 002°10'0 0.0
2018-Nov-09 11:01N 41°21' E 002°10'0 0.0
2018-Nov-09 10:31N 41°21' E 002°11'0 0.0
2018-Nov-09 10:00N 41°21' E 002°10'0 0.0
2018-Nov-09 09:30N 41°21' E 002°10'0 0.0
2018-Nov-09 08:56N 41°21' E 002°10'0 0.0
2018-Nov-09 08:32N 41°21' E 002°10'0 0.9
2018-Nov-09 08:02N 41°21' E 002°10'3 5.8
2018-Nov-09 07:33N 41°18' E 002°11'510.9
2018-Nov-09 07:03N 41°15' E 002°16'612.4
2018-Nov-09 06:33N 41°11' E 002°23'612.4
2018-Nov-09 06:02N 41°08' E 002°31'57816.4
2018-Nov-07 18:48N 36°34' E 013°24'2716.7
2018-Nov-07 17:11N 36°21' E 013°54'316.9
2018-Nov-07 17:02N 36°20' E 013°56'816.9
2018-Nov-07 16:32N 36°16' E 014°06'916.7
2018-Nov-07 16:00N 36°12' E 014°16'816.7
2018-Nov-07 15:32N 36°09' E 014°24'1515.8
2018-Nov-07 14:37N 35°56' E 014°32'111.4
2018-Nov-07 14:32N 35°55' E 014°32'95 5.5
2018-Nov-06 21:09N 37°17' E 015°32'111.7
2018-Nov-06 21:03N 37°17' E 015°31'111.8
2018-Nov-06 21:00N 37°18' E 015°30'44 3.3
2018-Nov-06 07:33N 38°02' E 015°31'217.4
2018-Nov-06 07:26N 38°04' E 015°32'716.8
2018-Nov-06 07:03N 38°10' E 015°35'116.3
2018-Nov-06 07:00N 38°11' E 015°35'1015.2
2018-Nov-06 06:21N 38°19' E 015°41'514.6
2018-Nov-06 06:02N 38°24' E 015°38'115.5
2018-Nov-06 06:00N 38°24' E 015°38'916.8
2018-Nov-06 05:29N 38°32' E 015°32'917.0
2018-Nov-06 04:59N 38°39' E 015°26'917.3
2018-Nov-06 04:28N 38°47' E 015°21'1217.2
2018-Nov-06 03:45N 38°59' E 015°16'5616.9
2018-Nov-06 00:25N 39°48' E 014°40'1517.0
2018-Nov-05 23:30N 40°01' E 014°30'816.8
2018-Nov-05 23:03N 40°08' E 014°26'116.8
2018-Nov-05 23:00N 40°09' E 014°25'816.0
2018-Nov-05 22:31N 40°16' E 014°20'511.7
2018-Nov-05 22:03N 40°20' E 014°17'111.8
2018-Nov-05 22:00N 40°21' E 014°16'611.9
2018-Nov-05 21:30N 40°26' E 014°12'611.8
2018-Nov-05 21:01N 40°31' E 014°09'011.6
2018-Nov-05 21:00N 40°31' E 014°09'511.0
2018-Nov-05 20:30N 40°36' E 014°10'512.1
2018-Nov-05 20:03N 40°41' E 014°13'111.9
2018-Nov-05 20:00N 40°42' E 014°13'611.8
2018-Nov-05 19:30N 40°47' E 014°16'012.0
2018-Nov-05 19:28N 40°48' E 014°16'2 5.5
2018-Nov-05 19:02N 40°50' E 014°16'0 0.0
2018-Nov-05 18:59N 40°50' E 014°16'0 0.2
2018-Nov-05 18:50N 40°50' E 014°16'0 0.0
2018-Nov-05 18:29N 40°50' E 014°16'0 6.0
2018-Nov-05 18:28N 40°50' E 014°16'0 0.3
2018-Nov-05 18:03N 40°50' E 014°16'0 3.5
2018-Nov-05 18:01N 40°50' E 014°16'010.5
2018-Nov-05 18:00N 40°50' E 014°16'0 5.5
2018-Nov-05 17:58N 40°50' E 014°16'0 0.6
2018-Nov-05 17:30N 40°50' E 014°16'0 7.9
2018-Nov-05 17:28N 40°50' E 014°16'0 0.3
2018-Nov-05 17:03N 40°50' E 014°16'0 5.5
2018-Nov-05 17:01N 40°50' E 014°16'0 3.9
2018-Nov-05 17:00N 40°50' E 014°16'0 1.4
2018-Nov-05 16:55N 40°50' E 014°16'0 0.2
2018-Nov-05 16:30N 40°50' E 014°16'0 3.1
2018-Nov-05 16:28N 40°50' E 014°16'0 0.1
2018-Nov-05 16:02N 40°50' E 014°16'0 2.7
2018-Nov-05 16:01N 40°50' E 014°16'0 1.1
2018-Nov-05 15:59N 40°50' E 014°16'0 2.3
2018-Nov-05 15:58N 40°50' E 014°16'0 0.1
2018-Nov-05 15:29N 40°50' E 014°16'0 1.9
2018-Nov-05 15:28N 40°50' E 014°16'0 0.0
2018-Nov-05 15:02N 40°50' E 014°16'0 0.0
2018-Nov-05 15:00N 40°50' E 014°16'0 1.0
2018-Nov-05 14:59N 40°50' E 014°16'0 0.0
2018-Nov-05 14:30N 40°50' E 014°16'0 0.3
2018-Nov-05 14:26N 40°50' E 014°16'0 0.1
2018-Nov-05 14:03N 40°50' E 014°16'0 0.0
2018-Nov-05 14:00N 40°50' E 014°16'0 0.4
2018-Nov-05 13:56N 40°50' E 014°16'0 0.0
2018-Nov-05 13:03N 40°50' E 014°16'0 2.2
2018-Nov-05 13:02N 40°50' E 014°16'0 1.1
2018-Nov-05 13:00N 40°50' E 014°16'0 0.6
2018-Nov-05 12:56N 40°50' E 014°16'0 0.1
2018-Nov-05 12:30N 40°50' E 014°16'0 0.4
2018-Nov-05 12:26N 40°50' E 014°16'0 0.1
2018-Nov-05 12:03N 40°50' E 014°16'0 0.0
2018-Nov-05 12:00N 40°50' E 014°16'0 2.3
2018-Nov-05 11:59N 40°50' E 014°16'0 0.5
2018-Nov-05 11:30N 40°50' E 014°16'2 4.7
2018-Nov-05 11:03N 40°48' E 014°18'0 5.6
2018-Nov-05 11:00N 40°48' E 014°18'5 9.9
2018-Nov-05 10:30N 40°44' E 014°15'819.0
2018-Nov-05 10:03N 40°39' E 014°05'120.2
2018-Nov-05 10:00N 40°39' E 014°04'1019.4
2018-Nov-05 09:31N 40°39' E 013°51'818.4
2018-Nov-05 09:03N 40°43' E 013°42'118.6
2018-Nov-05 09:01N 40°44' E 013°41'919.0
2018-Nov-05 08:31N 40°50' E 013°32'918.7
2018-Nov-05 08:01N 40°56' E 013°22'118.9
2018-Nov-05 07:59N 40°56' E 013°21'14818.7
2018-Nov-05 00:03N 42°21' E 010°38'218.8
2018-Nov-04 23:57N 42°22' E 010°36'918.8
2018-Nov-04 23:28N 42°27' E 010°27'919.1
2018-Nov-04 23:00N 42°33' E 010°17'2418.8
2018-Nov-04 21:45N 42°46' E 009°51'1218.8
2018-Nov-04 21:07N 42°53' E 009°38'119.6
2018-Nov-04 21:04N 42°54' E 009°37'119.6
2018-Nov-04 21:00N 42°55' E 009°37'1019.3
2018-Nov-04 20:31N 43°04' E 009°32'919.3
2018-Nov-04 20:03N 43°11' E 009°24'119.6
2018-Nov-04 20:01N 43°11' E 009°23'1019.4
2018-Nov-04 19:31N 43°19' E 009°15'919.4
2018-Nov-04 19:04N 43°27' E 009°10'119.6
2018-Nov-04 19:01N 43°28' E 009°09'1019.6
2018-Nov-04 18:31N 43°36' E 009°03'919.5
2018-Nov-04 18:04N 43°44' E 008°57'119.4
2018-Nov-04 18:01N 43°45' E 008°56'1920.1
2018-Nov-04 17:04N 44°02' E 008°44'120.3
2018-Nov-04 17:01N 44°03' E 008°43'1020.1
2018-Nov-04 16:31N 44°12' E 008°37'520.1
2018-Nov-04 16:16N 44°16' E 008°33'315.0
2018-Nov-04 16:03N 44°19' E 008°31'0 6.8
2018-Nov-04 16:00N 44°19' E 008°31'0 3.3
2018-Nov-04 15:55N 44°19' E 008°31'1 2.5
2018-Nov-04 15:30N 44°19' E 008°29'0 0.0
2018-Nov-04 15:03N 44°19' E 008°29'0 0.0
2018-Nov-04 15:00N 44°19' E 008°29'0 0.0
2018-Nov-04 14:30N 44°19' E 008°29'0 0.0
2018-Nov-04 14:03N 44°19' E 008°29'0 0.0
2018-Nov-04 14:00N 44°19' E 008°29'0 0.0
2018-Nov-04 13:30N 44°19' E 008°29'0 0.0
2018-Nov-04 13:02N 44°19' E 008°29'0 0.0
2018-Nov-04 12:59N 44°19' E 008°29'0 0.0
2018-Nov-04 12:29N 44°19' E 008°29'0 0.0
2018-Nov-04 12:01N 44°19' E 008°29'0 0.0
2018-Nov-04 11:58N 44°19' E 008°29'0 0.0
2018-Nov-04 11:28N 44°19' E 008°29'0 0.0
2018-Nov-04 11:01N 44°19' E 008°29'0 0.0
2018-Nov-04 10:58N 44°19' E 008°29'0 0.0
2018-Nov-04 10:28N 44°19' E 008°29'0 0.0
2018-Nov-04 10:01N 44°19' E 008°29'0 0.0
2018-Nov-04 09:58N 44°19' E 008°29'0 0.0
2018-Nov-04 09:30N 44°19' E 008°29'0 0.0
2018-Nov-04 09:03N 44°19' E 008°29'0 0.0
2018-Nov-04 09:00N 44°19' E 008°29'0 0.0
2018-Nov-04 08:30N 44°19' E 008°29'0 0.0
2018-Nov-04 08:03N 44°19' E 008°29'0 0.0
2018-Nov-04 08:00N 44°19' E 008°29'0 0.0
2018-Nov-04 07:29N 44°19' E 008°29'0 0.0
2018-Nov-04 07:03N 44°19' E 008°29'1 2.6
2018-Nov-04 06:31N 44°19' E 008°31'2 5.5
2018-Nov-04 06:04N 44°16' E 008°32'113.5
2018-Nov-04 06:00N 44°16' E 008°32'714.3
2018-Nov-04 05:30N 44°09' E 008°28'715.2
2018-Nov-04 05:03N 44°03' E 008°23'115.3
2018-Nov-04 05:00N 44°03' E 008°22'815.3
2018-Nov-04 04:30N 43°56' E 008°17'512.0
2018-Nov-04 04:03N 43°52' E 008°13'110.3
2018-Nov-04 04:00N 43°51' E 008°12'510.5
2018-Nov-04 03:30N 43°48' E 008°07'510.5
2018-Nov-04 03:03N 43°44' E 008°02'110.5
2018-Nov-04 03:00N 43°44' E 008°02'510.3
2018-Nov-04 02:30N 43°41' E 007°56'715.0
2018-Nov-04 02:03N 43°37' E 007°49'115.6
2018-Nov-04 02:00N 43°36' E 007°48'815.6
2018-Nov-04 01:30N 43°31' E 007°39'715.6
2018-Nov-04 01:03N 43°26' E 007°33'115.6
2018-Nov-04 01:00N 43°26' E 007°32'815.8
2018-Nov-04 00:30N 43°21' E 007°23'715.9
2018-Nov-04 00:03N 43°17' E 007°15'115.7
2018-Nov-04 00:00N 43°16' E 007°15'815.8
2018-Nov-03 23:30N 43°12' E 007°06'715.8
2018-Nov-03 23:03N 43°09' E 006°57'115.7
2018-Nov-03 23:00N 43°08' E 006°56'815.3
2018-Nov-03 22:30N 43°04' E 006°47'7214.2
2018-Nov-03 17:27N 43°09' E 005°09'615.9
2018-Nov-03 17:03N 43°15' E 005°12'116.2
2018-Nov-03 17:00N 43°16' E 005°12'713.4
2018-Nov-03 16:29N 43°21' E 005°19'1 2.7
2018-Nov-03 16:03N 43°21' E 005°20'0 0.0
2018-Nov-03 16:00N 43°21' E 005°20'0 0.0
2018-Nov-03 15:29N 43°21' E 005°20'0 0.0
2018-Nov-03 15:02N 43°21' E 005°20'0 0.0
2018-Nov-03 14:59N 43°21' E 005°20'0 0.0
2018-Nov-03 14:29N 43°21' E 005°20'0 0.0
2018-Nov-03 14:03N 43°21' E 005°20'0 0.0
2018-Nov-03 13:54N 43°21' E 005°20'0 0.0
2018-Nov-03 13:27N 43°21' E 005°20'0 0.0
2018-Nov-03 13:03N 43°21' E 005°20'0 0.0
2018-Nov-03 12:57N 43°21' E 005°20'0 0.0
2018-Nov-03 12:27N 43°21' E 005°20'0 0.0
2018-Nov-03 12:03N 43°21' E 005°20'0 0.0
2018-Nov-03 11:57N 43°21' E 005°20'0 0.0
2018-Nov-03 11:27N 43°21' E 005°20'0 0.0
2018-Nov-03 10:57N 43°21' E 005°20'0 0.0
2018-Nov-03 10:24N 43°21' E 005°20'0 0.0
2018-Nov-03 09:57N 43°21' E 005°20'0 0.0
2018-Nov-03 09:27N 43°21' E 005°20'0 0.0
2018-Nov-03 09:00N 43°21' E 005°20'0 0.0
2018-Nov-03 08:30N 43°21' E 005°20'0 0.0
2018-Nov-03 08:00N 43°21' E 005°20'0 0.0
2018-Nov-03 07:27N 43°21' E 005°20'0 0.0
2018-Nov-03 07:00N 43°21' E 005°20'0 0.3
2018-Nov-03 06:30N 43°21' E 005°20'1 3.0
2018-Nov-03 06:03N 43°21' E 005°18'0 8.5
2018-Nov-03 06:00N 43°21' E 005°18'510.6
2018-Nov-03 05:30N 43°18' E 005°13'919.0
2018-Nov-03 05:03N 43°11' E 005°05'119.8
2018-Nov-03 05:00N 43°10' E 005°04'1019.0
2018-Nov-03 04:27N 43°05' E 004°52'13917.1
2018-Nov-02 20:20N 41°26' E 002°39'517.3
2018-Nov-02 20:03N 41°24' E 002°33'117.5
2018-Nov-02 20:00N 41°23' E 002°32'917.4
2018-Nov-02 19:30N 41°18' E 002°23'716.6
2018-Nov-02 19:03N 41°15' E 002°14'116.3
2018-Nov-02 19:00N 41°15' E 002°13'510.7
2018-Nov-02 18:30N 41°20' E 002°10'1 2.0
2018-Nov-02 18:01N 41°21' E 002°10'0 0.0
2018-Nov-02 17:58N 41°21' E 002°10'0 0.0
2018-Nov-02 17:28N 41°21' E 002°10'0 0.0
2018-Nov-02 17:01N 41°21' E 002°10'0 0.0
2018-Nov-02 16:58N 41°21' E 002°10'0 0.0
2018-Nov-02 16:30N 41°21' E 002°10'0 0.0
2018-Nov-02 16:02N 41°21' E 002°10'0 0.0
2018-Nov-02 15:59N 41°21' E 002°10'0 0.0
2018-Nov-02 15:28N 41°21' E 002°10'0 0.0
2018-Nov-02 15:01N 41°21' E 002°10'0 0.0
2018-Nov-02 14:58N 41°21' E 002°10'0 0.0
2018-Nov-02 14:30N 41°21' E 002°10'0 0.0
2018-Nov-02 14:00N 41°21' E 002°10'0 0.0
2018-Nov-02 13:30N 41°21' E 002°10'0 0.0
2018-Nov-02 13:03N 41°21' E 002°10'0 0.0
2018-Nov-02 13:00N 41°21' E 002°10'0 0.0
2018-Nov-02 12:27N 41°21' E 002°10'0 0.0
2018-Nov-02 12:03N 41°21' E 002°10'0 0.0
2018-Nov-02 12:00N 41°21' E 002°10'0 0.0
2018-Nov-02 11:30N 41°21' E 002°10'0 0.0
2018-Nov-02 11:03N 41°21' E 002°10'0 0.0
2018-Nov-02 11:00N 41°21' E 002°10'0 0.0
2018-Nov-02 10:30N 41°21' E 002°10'0 0.0
2018-Nov-02 10:03N 41°21' E 002°10'0 0.0
2018-Nov-02 09:54N 41°21' E 002°10'0 0.0
2018-Nov-02 09:27N 41°21' E 002°10'0 0.0
2018-Nov-02 09:03N 41°21' E 002°10'0 0.0
2018-Nov-02 09:00N 41°21' E 002°10'0 0.0
2018-Nov-02 08:30N 41°21' E 002°10'0 0.0
2018-Nov-02 08:03N 41°21' E 002°10'0 0.0
2018-Nov-02 08:00N 41°21' E 002°10'0 0.0
2018-Nov-02 07:30N 41°21' E 002°10'1 1.5
2018-Nov-02 07:03N 41°21' E 002°10'0 0.6
2018-Nov-02 07:01N 41°21' E 002°10'3 6.5
2018-Nov-02 06:31N 41°17' E 002°11'510.5
2018-Nov-02 06:04N 41°14' E 002°16'113.8
2018-Nov-02 06:01N 41°14' E 002°16'816.7
2018-Nov-02 05:30N 41°10' E 002°26'815.2
2018-Nov-02 05:00N 41°06' E 002°35'  
Track history (hours):
 
Tides and Currents Weather Stations Pressure Air Temp Water Temp Dewpoint Dewpoint Depression Visibility Wind Speed Wind Dir Waves Ship Positions

Costa Fascinosa

Last reported at 2018-Nov-11 02:32 UTC. Time now 2018-Nov-18 16:09 UTC.
Position N 43°35' E 007°44'.

Length 291 m; draft 8.3 m.

Type: Passenger vessel. MMSI: 247313500.

Date/timePositionNaut miles runAvg speedWind from/ knotsBaromVisibWave heightAir tempDewpointWater temp
2018-Nov-11 02:32N 43°35' E 007°44'917.0
2018-Nov-11 02:02N 43°29' E 007°35'816.8
2018-Nov-11 01:32N 43°24' E 007°26'816.9
2018-Nov-11 01:02N 43°19' E 007°17'816.6
2018-Nov-11 00:32N 43°14' E 007°07'816.7
2018-Nov-11 00:02N 43°10' E 006°57'917.0
2018-Nov-10 23:32N 43°05' E 006°48'1116.5
2018-Nov-10 22:53N 42°59' E 006°36'6111.9
2018-Nov-10 17:44N 43°08' E 005°13'311.4
2018-Nov-10 17:31N 43°09' E 005°10'511.0
2018-Nov-10 17:02N 43°15' E 005°10'611.5
2018-Nov-10 16:32N 43°19' E 005°15'4 0.4
2018-Nov-10 07:16N 43°21' E 005°20'0 1.2
2018-Nov-10 07:02N 43°21' E 005°19'4 7.6
2018-Nov-10 06:30N 43°19' E 005°15'613.0
2018-Nov-10 06:02N 43°14' E 005°10'1216.7
2018-Nov-10 05:20N 43°04' E 005°01'14314.0
2018-Nov-09 19:03N 41°26' E 002°39'112.2
2018-Nov-09 19:00N 41°26' E 002°38'612.2
2018-Nov-09 18:32N 41°23' E 002°32'611.9
2018-Nov-09 18:02N 41°20' E 002°25'611.7
2018-Nov-09 17:32N 41°16' E 002°19'510.3
2018-Nov-09 17:02N 41°14' E 002°13'611.8
2018-Nov-09 16:32N 41°20' E 002°10'1 2.8
2018-Nov-09 16:02N 41°21' E 002°10'0 0.0
2018-Nov-09 15:32N 41°21' E 002°10'0 0.0
2018-Nov-09 14:49N 41°21' E 002°10'0 0.0
2018-Nov-09 14:29N 41°21' E 002°10'0 0.0
2018-Nov-09 13:46N 41°21' E 002°10'0 0.0
2018-Nov-09 13:31N 41°21' E 002°10'0 0.0
2018-Nov-09 13:00N 41°21' E 002°10'0 0.0
2018-Nov-09 12:30N 41°21' E 002°10'0 0.0
2018-Nov-09 12:02N 41°21' E 002°10'0 0.0
2018-Nov-09 11:31N 41°21' E 002°10'0 0.0
2018-Nov-09 11:01N 41°21' E 002°10'0 0.0
2018-Nov-09 10:31N 41°21' E 002°11'0 0.0
2018-Nov-09 10:00N 41°21' E 002°10'0 0.0
2018-Nov-09 09:30N 41°21' E 002°10'0 0.0
2018-Nov-09 08:56N 41°21' E 002°10'0 0.0
2018-Nov-09 08:32N 41°21' E 002°10'0 0.9
2018-Nov-09 08:02N 41°21' E 002°10'3 5.8
2018-Nov-09 07:33N 41°18' E 002°11'510.9
2018-Nov-09 07:03N 41°15' E 002°16'612.4
2018-Nov-09 06:33N 41°11' E 002°23'612.4
2018-Nov-09 06:02N 41°08' E 002°31'57816.4
2018-Nov-07 18:48N 36°34' E 013°24'2716.7
2018-Nov-07 17:11N 36°21' E 013°54'316.9
2018-Nov-07 17:02N 36°20' E 013°56'816.9
2018-Nov-07 16:32N 36°16' E 014°06'916.7
2018-Nov-07 16:00N 36°12' E 014°16'816.7
2018-Nov-07 15:32N 36°09' E 014°24'1515.8
2018-Nov-07 14:37N 35°56' E 014°32'111.4
2018-Nov-07 14:32N 35°55' E 014°32'95 5.5
2018-Nov-06 21:09N 37°17' E 015°32'111.7
2018-Nov-06 21:03N 37°17' E 015°31'111.8
2018-Nov-06 21:00N 37°18' E 015°30'44 3.3
2018-Nov-06 07:33N 38°02' E 015°31'217.4
2018-Nov-06 07:26N 38°04' E 015°32'716.8
2018-Nov-06 07:03N 38°10' E 015°35'116.3
2018-Nov-06 07:00N 38°11' E 015°35'1015.2
2018-Nov-06 06:21N 38°19' E 015°41'514.6
2018-Nov-06 06:02N 38°24' E 015°38'115.5
2018-Nov-06 06:00N 38°24' E 015°38'916.8
2018-Nov-06 05:29N 38°32' E 015°32'917.0
2018-Nov-06 04:59N 38°39' E 015°26'917.3
2018-Nov-06 04:28N 38°47' E 015°21'1217.2
2018-Nov-06 03:45N 38°59' E 015°16'5616.9
2018-Nov-06 00:25N 39°48' E 014°40'1517.0
2018-Nov-05 23:30N 40°01' E 014°30'816.8
2018-Nov-05 23:03N 40°08' E 014°26'116.8
2018-Nov-05 23:00N 40°09' E 014°25'816.0
2018-Nov-05 22:31N 40°16' E 014°20'511.7
2018-Nov-05 22:03N 40°20' E 014°17'111.8
2018-Nov-05 22:00N 40°21' E 014°16'611.9
2018-Nov-05 21:30N 40°26' E 014°12'611.8
2018-Nov-05 21:01N 40°31' E 014°09'011.6
2018-Nov-05 21:00N 40°31' E 014°09'511.0
2018-Nov-05 20:30N 40°36' E 014°10'512.1
2018-Nov-05 20:03N 40°41' E 014°13'111.9
2018-Nov-05 20:00N 40°42' E 014°13'611.8
2018-Nov-05 19:30N 40°47' E 014°16'012.0
2018-Nov-05 19:28N 40°48' E 014°16'2 5.5
2018-Nov-05 19:02N 40°50' E 014°16'0 0.0
2018-Nov-05 18:59N 40°50' E 014°16'0 0.2
2018-Nov-05 18:50N 40°50' E 014°16'0 0.0
2018-Nov-05 18:29N 40°50' E 014°16'0 6.0
2018-Nov-05 18:28N 40°50' E 014°16'0 0.3
2018-Nov-05 18:03N 40°50' E 014°16'0 3.5
2018-Nov-05 18:01N 40°50' E 014°16'010.5
2018-Nov-05 18:00N 40°50' E 014°16'0 5.5
2018-Nov-05 17:58N 40°50' E 014°16'0 0.6
2018-Nov-05 17:30N 40°50' E 014°16'0 7.9
2018-Nov-05 17:28N 40°50' E 014°16'0 0.3
2018-Nov-05 17:03N 40°50' E 014°16'0 5.5
2018-Nov-05 17:01N 40°50' E 014°16'0 3.9
2018-Nov-05 17:00N 40°50' E 014°16'0 1.4
2018-Nov-05 16:55N 40°50' E 014°16'0 0.2
2018-Nov-05 16:30N 40°50' E 014°16'0 3.1
2018-Nov-05 16:28N 40°50' E 014°16'0 0.1
2018-Nov-05 16:02N 40°50' E 014°16'0 2.7
2018-Nov-05 16:01N 40°50' E 014°16'0 1.1
2018-Nov-05 15:59N 40°50' E 014°16'0 2.3
2018-Nov-05 15:58N 40°50' E 014°16'0 0.1
2018-Nov-05 15:29N 40°50' E 014°16'0 1.9
2018-Nov-05 15:28N 40°50' E 014°16'0 0.0
2018-Nov-05 15:02N 40°50' E 014°16'0 0.0
2018-Nov-05 15:00N 40°50' E 014°16'0 1.0
2018-Nov-05 14:59N 40°50' E 014°16'0 0.0
2018-Nov-05 14:30N 40°50' E 014°16'0 0.3
2018-Nov-05 14:26N 40°50' E 014°16'0 0.1
2018-Nov-05 14:03N 40°50' E 014°16'0 0.0
2018-Nov-05 14:00N 40°50' E 014°16'0 0.4
2018-Nov-05 13:56N 40°50' E 014°16'0 0.0
2018-Nov-05 13:03N 40°50' E 014°16'0 2.2
2018-Nov-05 13:02N 40°50' E 014°16'0 1.1
2018-Nov-05 13:00N 40°50' E 014°16'0 0.6
2018-Nov-05 12:56N 40°50' E 014°16'0 0.1
2018-Nov-05 12:30N 40°50' E 014°16'0 0.4
2018-Nov-05 12:26N 40°50' E 014°16'0 0.1
2018-Nov-05 12:03N 40°50' E 014°16'0 0.0
2018-Nov-05 12:00N 40°50' E 014°16'0 2.3
2018-Nov-05 11:59N 40°50' E 014°16'0 0.5
2018-Nov-05 11:30N 40°50' E 014°16'2 4.7
2018-Nov-05 11:03N 40°48' E 014°18'0 5.6
2018-Nov-05 11:00N 40°48' E 014°18'5 9.9
2018-Nov-05 10:30N 40°44' E 014°15'819.0
2018-Nov-05 10:03N 40°39' E 014°05'120.2
2018-Nov-05 10:00N 40°39' E 014°04'1019.4
2018-Nov-05 09:31N 40°39' E 013°51'818.4
2018-Nov-05 09:03N 40°43' E 013°42'118.6
2018-Nov-05 09:01N 40°44' E 013°41'919.0
2018-Nov-05 08:31N 40°50' E 013°32'918.7
2018-Nov-05 08:01N 40°56' E 013°22'118.9
2018-Nov-05 07:59N 40°56' E 013°21'14818.7
2018-Nov-05 00:03N 42°21' E 010°38'218.8
2018-Nov-04 23:57N 42°22' E 010°36'918.8
2018-Nov-04 23:28N 42°27' E 010°27'919.1
2018-Nov-04 23:00N 42°33' E 010°17'2418.8
2018-Nov-04 21:45N 42°46' E 009°51'1218.8
2018-Nov-04 21:07N 42°53' E 009°38'119.6
2018-Nov-04 21:04N 42°54' E 009°37'119.6
2018-Nov-04 21:00N 42°55' E 009°37'1019.3
2018-Nov-04 20:31N 43°04' E 009°32'919.3
2018-Nov-04 20:03N 43°11' E 009°24'119.6
2018-Nov-04 20:01N 43°11' E 009°23'1019.4
2018-Nov-04 19:31N 43°19' E 009°15'919.4
2018-Nov-04 19:04N 43°27' E 009°10'119.6
2018-Nov-04 19:01N 43°28' E 009°09'1019.6
2018-Nov-04 18:31N 43°36' E 009°03'919.5
2018-Nov-04 18:04N 43°44' E 008°57'119.4
2018-Nov-04 18:01N 43°45' E 008°56'1920.1
2018-Nov-04 17:04N 44°02' E 008°44'120.3
2018-Nov-04 17:01N 44°03' E 008°43'1020.1
2018-Nov-04 16:31N 44°12' E 008°37'520.1
2018-Nov-04 16:16N 44°16' E 008°33'315.0
2018-Nov-04 16:03N 44°19' E 008°31'0 6.8
2018-Nov-04 16:00N 44°19' E 008°31'0 3.3
2018-Nov-04 15:55N 44°19' E 008°31'1 2.5
2018-Nov-04 15:30N 44°19' E 008°29'0 0.0
2018-Nov-04 15:03N 44°19' E 008°29'0 0.0
2018-Nov-04 15:00N 44°19' E 008°29'0 0.0
2018-Nov-04 14:30N 44°19' E 008°29'0 0.0
2018-Nov-04 14:03N 44°19' E 008°29'0 0.0
2018-Nov-04 14:00N 44°19' E 008°29'0 0.0
2018-Nov-04 13:30N 44°19' E 008°29'0 0.0
2018-Nov-04 13:02N 44°19' E 008°29'0 0.0
2018-Nov-04 12:59N 44°19' E 008°29'0 0.0
2018-Nov-04 12:29N 44°19' E 008°29'0 0.0
2018-Nov-04 12:01N 44°19' E 008°29'0 0.0
2018-Nov-04 11:58N 44°19' E 008°29'0 0.0
2018-Nov-04 11:28N 44°19' E 008°29'0 0.0
2018-Nov-04 11:01N 44°19' E 008°29'0 0.0
2018-Nov-04 10:58N 44°19' E 008°29'0 0.0
2018-Nov-04 10:28N 44°19' E 008°29'0 0.0
2018-Nov-04 10:01N 44°19' E 008°29'0 0.0
2018-Nov-04 09:58N 44°19' E 008°29'0 0.0
2018-Nov-04 09:30N 44°19' E 008°29'0 0.0
2018-Nov-04 09:03N 44°19' E 008°29'0 0.0
2018-Nov-04 09:00N 44°19' E 008°29'0 0.0
2018-Nov-04 08:30N 44°19' E 008°29'0 0.0
2018-Nov-04 08:03N 44°19' E 008°29'0 0.0
2018-Nov-04 08:00N 44°19' E 008°29'0 0.0
2018-Nov-04 07:29N 44°19' E 008°29'0 0.0
2018-Nov-04 07:03N 44°19' E 008°29'1 2.6
2018-Nov-04 06:31N 44°19' E 008°31'2 5.5
2018-Nov-04 06:04N 44°16' E 008°32'113.5
2018-Nov-04 06:00N 44°16' E 008°32'714.3
2018-Nov-04 05:30N 44°09' E 008°28'715.2
2018-Nov-04 05:03N 44°03' E 008°23'115.3
2018-Nov-04 05:00N 44°03' E 008°22'815.3
2018-Nov-04 04:30N 43°56' E 008°17'512.0
2018-Nov-04 04:03N 43°52' E 008°13'110.3
2018-Nov-04 04:00N 43°51' E 008°12'510.5
2018-Nov-04 03:30N 43°48' E 008°07'510.5
2018-Nov-04 03:03N 43°44' E 008°02'110.5
2018-Nov-04 03:00N 43°44' E 008°02'510.3
2018-Nov-04 02:30N 43°41' E 007°56'715.0
2018-Nov-04 02:03N 43°37' E 007°49'115.6
2018-Nov-04 02:00N 43°36' E 007°48'815.6
2018-Nov-04 01:30N 43°31' E 007°39'715.6
2018-Nov-04 01:03N 43°26' E 007°33'115.6
2018-Nov-04 01:00N 43°26' E 007°32'815.8
2018-Nov-04 00:30N 43°21' E 007°23'715.9
2018-Nov-04 00:03N 43°17' E 007°15'115.7
2018-Nov-04 00:00N 43°16' E 007°15'815.8
2018-Nov-03 23:30N 43°12' E 007°06'715.8
2018-Nov-03 23:03N 43°09' E 006°57'115.7
2018-Nov-03 23:00N 43°08' E 006°56'815.3
2018-Nov-03 22:30N 43°04' E 006°47'7214.2
2018-Nov-03 17:27N 43°09' E 005°09'615.9
2018-Nov-03 17:03N 43°15' E 005°12'116.2
2018-Nov-03 17:00N 43°16' E 005°12'713.4
2018-Nov-03 16:29N 43°21' E 005°19'1 2.7
2018-Nov-03 16:03N 43°21' E 005°20'0 0.0
2018-Nov-03 16:00N 43°21' E 005°20'0 0.0
2018-Nov-03 15:29N 43°21' E 005°20'0 0.0
2018-Nov-03 15:02N 43°21' E 005°20'0 0.0
2018-Nov-03 14:59N 43°21' E 005°20'0 0.0
2018-Nov-03 14:29N 43°21' E 005°20'0 0.0
2018-Nov-03 14:03N 43°21' E 005°20'0 0.0
2018-Nov-03 13:54N 43°21' E 005°20'0 0.0
2018-Nov-03 13:27N 43°21' E 005°20'0 0.0
2018-Nov-03 13:03N 43°21' E 005°20'0 0.0
2018-Nov-03 12:57N 43°21' E 005°20'0 0.0
2018-Nov-03 12:27N 43°21' E 005°20'0 0.0
2018-Nov-03 12:03N 43°21' E 005°20'0 0.0
2018-Nov-03 11:57N 43°21' E 005°20'0 0.0
2018-Nov-03 11:27N 43°21' E 005°20'0 0.0
2018-Nov-03 10:57N 43°21' E 005°20'0 0.0
2018-Nov-03 10:24N 43°21' E 005°20'0 0.0
2018-Nov-03 09:57N 43°21' E 005°20'0 0.0
2018-Nov-03 09:27N 43°21' E 005°20'0 0.0
2018-Nov-03 09:00N 43°21' E 005°20'0 0.0
2018-Nov-03 08:30N 43°21' E 005°20'0 0.0
2018-Nov-03 08:00N 43°21' E 005°20'0 0.0
2018-Nov-03 07:27N 43°21' E 005°20'0 0.0
2018-Nov-03 07:00N 43°21' E 005°20'0 0.3
2018-Nov-03 06:30N 43°21' E 005°20'1 3.0
2018-Nov-03 06:03N 43°21' E 005°18'0 8.5
2018-Nov-03 06:00N 43°21' E 005°18'510.6
2018-Nov-03 05:30N 43°18' E 005°13'919.0
2018-Nov-03 05:03N 43°11' E 005°05'119.8
2018-Nov-03 05:00N 43°10' E 005°04'1019.0
2018-Nov-03 04:27N 43°05' E 004°52'13917.1
2018-Nov-02 20:20N 41°26' E 002°39'517.3
2018-Nov-02 20:03N 41°24' E 002°33'117.5
2018-Nov-02 20:00N 41°23' E 002°32'917.4
2018-Nov-02 19:30N 41°18' E 002°23'716.6
2018-Nov-02 19:03N 41°15' E 002°14'116.3
2018-Nov-02 19:00N 41°15' E 002°13'510.7
2018-Nov-02 18:30N 41°20' E 002°10'1 2.0
2018-Nov-02 18:01N 41°21' E 002°10'0 0.0
2018-Nov-02 17:58N 41°21' E 002°10'0 0.0
2018-Nov-02 17:28N 41°21' E 002°10'0 0.0
2018-Nov-02 17:01N 41°21' E 002°10'0 0.0
2018-Nov-02 16:58N 41°21' E 002°10'0 0.0
2018-Nov-02 16:30N 41°21' E 002°10'0 0.0
2018-Nov-02 16:02N 41°21' E 002°10'0 0.0
2018-Nov-02 15:59N 41°21' E 002°10'0 0.0
2018-Nov-02 15:28N 41°21' E 002°10'0 0.0
2018-Nov-02 15:01N 41°21' E 002°10'0 0.0
2018-Nov-02 14:58N 41°21' E 002°10'0 0.0
2018-Nov-02 14:30N 41°21' E 002°10'0 0.0
2018-Nov-02 14:00N 41°21' E 002°10'0 0.0
2018-Nov-02 13:30N 41°21' E 002°10'0 0.0
2018-Nov-02 13:03N 41°21' E 002°10'0 0.0
2018-Nov-02 13:00N 41°21' E 002°10'0 0.0
2018-Nov-02 12:27N 41°21' E 002°10'0 0.0
2018-Nov-02 12:03N 41°21' E 002°10'0 0.0
2018-Nov-02 12:00N 41°21' E 002°10'0 0.0
2018-Nov-02 11:30N 41°21' E 002°10'0 0.0
2018-Nov-02 11:03N 41°21' E 002°10'0 0.0
2018-Nov-02 11:00N 41°21' E 002°10'0 0.0
2018-Nov-02 10:30N 41°21' E 002°10'0 0.0
2018-Nov-02 10:03N 41°21' E 002°10'0 0.0
2018-Nov-02 09:54N 41°21' E 002°10'0 0.0
2018-Nov-02 09:27N 41°21' E 002°10'0 0.0
2018-Nov-02 09:03N 41°21' E 002°10'0 0.0
2018-Nov-02 09:00N 41°21' E 002°10'0 0.0
2018-Nov-02 08:30N 41°21' E 002°10'0 0.0
2018-Nov-02 08:03N 41°21' E 002°10'0 0.0
2018-Nov-02 08:00N 41°21' E 002°10'0 0.0
2018-Nov-02 07:30N 41°21' E 002°10'1 1.5
2018-Nov-02 07:03N 41°21' E 002°10'0 0.6
2018-Nov-02 07:01N 41°21' E 002°10'3 6.5
2018-Nov-02 06:31N 41°17' E 002°11'510.5
2018-Nov-02 06:04N 41°14' E 002°16'113.8
2018-Nov-02 06:01N 41°14' E 002°16'816.7
2018-Nov-02 05:30N 41°10' E 002°26'815.2
2018-Nov-02 05:00N 41°06' E 002°35'  

Dump ship's entire track history